KMLJ/MLJ METAR and TAF weather

Enter ICAO airport designator
Station Type Date Time Source
KMLJ METAR 2021/03/01 20:56 UTC NOAA

KMLJ 012056Z AUTO 31009KT 10SM OVC085 20/12 A3006 RMK AO2


Station Type Date Time Source
KMLJ Decoded METAR 2021/03/01 20:56 UTC NOAA

Milledgeville, Baldwin County Airport, GA, United States (KMLJ) 33-09-15N 083-14-26W
Mar 01, 2021 - 03:56 PM EST / 2021.03.01 2056 UTC
Wind: from the NW (310 degrees) at 10 MPH (9 KT):0
Visibility: 10 mile(s):0
Sky conditions: overcast
Temperature: 68 F (20 C)
Dew Point: 53 F (12 C)
Relative Humidity: 59%
Pressure (altimeter): 30.06 in. Hg (1017 hPa)
ob: KMLJ 012056Z AUTO 31009KT 10SM OVC085 20/12 A3006 RMK AO2
cycle: 21

Station Type Date Time Source
KMLJ TAF UTC NOAA

Error!

Example: see airport list